Time;durP1;ratioP1;P1;durP2;ratioP2;P2;SDS_P1;SDS_P2;PMS_P1;PMS_P2;Temp;Humidity;BMP_temperature;BMP_pressure;BME280_temperature;BME280_humidity;BME280_pressure;Samples;Min_cycle;Max_cycle;Signal;HPM_P1;HPM_P2
2023/01/03 00:01:07;;;;;;;8.23;4.43;;;7.10;99.90;;;;;;5081294;28;20163;-80
2023/01/03 00:03:33;;;;;;;8.70;4.73;;;7.10;99.90;;;;;;5099845;28;20178;-80
2023/01/03 00:05:58;;;;;;;9.77;4.13;;;7.10;99.90;;;;;;5100152;28;20647;-80
2023/01/03 00:08:24;;;;;;;7.10;4.07;;;7.10;99.90;;;;;;5080177;28;20202;-80
2023/01/03 00:10:49;;;;;;;10.93;4.57;;;7.00;99.90;;;;;;5081423;28;20174;-80
2023/01/03 00:13:15;;;;;;;6.83;3.80;;;7.00;99.90;;;;;;5080640;28;20205;-80
2023/01/03 00:15:40;;;;;;;5.87;3.73;;;7.00;99.90;;;;;;5081401;28;20257;-80
2023/01/03 00:18:06;;;;;;;6.10;3.77;;;7.00;99.90;;;;;;5081866;28;20281;-80
2023/01/03 00:20:33;;;;;;;6.10;4.37;;;6.90;99.90;;;;;;5099494;28;20163;-80
2023/01/03 00:23:00;;;;;;;11.53;4.50;;;6.90;99.90;;;;;;5080953;28;20208;-80
2023/01/03 00:25:26;;;;;;;8.30;3.83;;;6.90;99.90;;;;;;5099052;28;20173;-80
2023/01/03 00:27:52;;;;;;;6.57;3.57;;;6.90;99.90;;;;;;5080865;28;20279;-80
2023/01/03 00:30:18;;;;;;;8.50;3.87;;;6.90;99.90;;;;;;5080895;28;20174;-80
2023/01/03 00:32:43;;;;;;;6.30;3.90;;;7.00;99.90;;;;;;5080706;28;20194;-80
2023/01/03 00:35:09;;;;;;;7.70;3.87;;;7.00;99.90;;;;;;5081085;28;20257;-80
2023/01/03 00:37:35;;;;;;;8.60;3.97;;;6.90;99.90;;;;;;5081452;28;20186;-81
2023/01/03 00:40:00;;;;;;;5.63;3.57;;;6.90;99.90;;;;;;5098933;28;20163;-80
2023/01/03 00:42:26;;;;;;;7.23;3.73;;;6.90;99.90;;;;;;5081496;28;20208;-80
2023/01/03 00:44:51;;;;;;;10.67;4.90;;;6.90;99.90;;;;;;5081244;28;20189;-80
2023/01/03 00:47:17;;;;;;;9.33;3.97;;;6.90;99.90;;;;;;5099385;28;20197;-80
2023/01/03 00:49:42;;;;;;;7.17;4.27;;;6.90;99.90;;;;;;5099592;28;20544;-81
2023/01/03 00:52:08;;;;;;;7.93;4.20;;;7.00;99.90;;;;;;5082017;28;20181;-81
2023/01/03 00:54:33;;;;;;;8.50;4.80;;;7.00;99.90;;;;;;5098994;28;20202;-80
2023/01/03 00:56:59;;;;;;;9.33;3.83;;;7.00;99.90;;;;;;5097352;28;20194;-80
2023/01/03 00:59:25;;;;;;;7.70;4.43;;;7.10;99.90;;;;;;5080630;28;20265;-80
2023/01/03 01:01:53;;;;;;;7.00;5.10;;;7.10;99.90;;;;;;5098579;28;20171;-78
2023/01/03 01:04:23;;;;;;;11.53;4.67;;;7.10;99.90;;;;;;5080511;28;20178;-80
2023/01/03 01:06:52;;;;;;;13.47;4.77;;;7.10;99.90;;;;;;5080877;28;20712;-80
2023/01/03 01:09:24;;;;;;;9.20;4.70;;;7.10;99.90;;;;;;5080531;28;20178;-80
2023/01/03 01:11:50;;;;;;;7.70;4.33;;;7.00;99.90;;;;;;5099090;28;20178;-78
2023/01/03 01:14:19;;;;;;;6.40;3.80;;;7.00;99.90;;;;;;5080198;28;20212;-80
2023/01/03 01:16:51;;;;;;;8.87;4.00;;;6.90;99.90;;;;;;5098433;28;20176;-80
2023/01/03 01:19:19;;;;;;;6.60;3.80;;;6.90;99.90;;;;;;5079491;28;20196;-80
2023/01/03 01:21:45;;;;;;;7.43;4.00;;;6.90;99.90;;;;;;5080971;28;20581;-80
2023/01/03 01:24:12;;;;;;;8.37;3.90;;;6.80;99.90;;;;;;5099111;28;20185;-80
2023/01/03 01:26:37;;;;;;;15.37;4.50;;;6.90;99.90;;;;;;5080145;28;20182;-81
2023/01/03 01:29:03;;;;;;;7.33;3.80;;;6.90;99.90;;;;;;5098348;28;20198;-80
2023/01/03 01:31:29;;;;;;;8.17;3.97;;;6.80;99.90;;;;;;5079680;28;20197;-80
2023/01/03 01:33:55;;;;;;;12.07;4.03;;;6.80;99.90;;;;;;5080144;28;20201;-80
2023/01/03 01:36:23;;;;;;;5.50;3.33;;;6.80;99.90;;;;;;5098688;28;20175;-80
2023/01/03 01:38:54;;;;;;;8.07;3.50;;;6.80;99.90;;;;;;5080043;28;20220;-80
2023/01/03 01:44:36;;;;;;;8.77;3.63;;;6.80;99.90;;;;;;5098477;28;20159;-80
2023/01/03 01:46:51;;;;;;;9.83;4.00;;;6.80;99.90;;;;;;5099550;28;20251;-79
2023/01/03 01:49:24;;;;;;;7.13;3.87;;;6.90;99.90;;;;;;5098847;28;20185;-80
2023/01/03 01:51:50;;;;;;;8.57;3.60;;;6.90;99.90;;;;;;5082284;28;20162;-79
2023/01/03 01:54:17;;;;;;;8.27;2.83;;;6.80;99.90;;;;;;5105816;28;20194;-80
2023/01/03 01:56:47;;;;;;;5.67;3.57;;;6.90;99.90;;;;;;5118232;28;20158;-80
2023/01/03 01:59:14;;;;;;;8.03;3.83;;;6.90;99.90;;;;;;5100898;28;20178;-80
2023/01/03 02:01:41;;;;;;;5.07;3.07;;;6.90;99.90;;;;;;5105277;28;20190;-80
2023/01/03 02:04:18;;;;;;;10.53;3.60;;;6.90;99.90;;;;;;5098178;28;20204;-80
2023/01/03 02:06:44;;;;;;;6.03;3.43;;;6.90;99.90;;;;;;5098109;28;20249;-80
2023/01/03 02:09:09;;;;;;;10.10;3.53;;;6.90;99.90;;;;;;5097594;28;20178;-80
2023/01/03 02:15:11;;;;;;;5.57;3.50;;;6.90;99.90;;;;;;5097722;28;20215;-80
2023/01/03 02:18:03;;;;;;;5.67;3.80;;;6.90;99.90;;;;;;5097301;28;20221;-80
2023/01/03 02:20:43;;;;;;;6.73;3.70;;;6.90;99.90;;;;;;5098212;28;20195;-80
2023/01/03 02:23:36;;;;;;;4.77;3.40;;;6.90;99.90;;;;;;5097575;28;20212;-80
2023/01/03 02:26:43;;;;;;;6.23;3.43;;;6.90;99.90;;;;;;5097954;28;20158;-80
2023/01/03 02:29:39;;;;;;;7.53;3.50;;;6.90;99.90;;;;;;4998034;28;20181;-80
2023/01/03 02:32:38;;;;;;;6.83;3.67;;;6.90;99.90;;;;;;5081771;28;20190;-80
2023/01/03 02:35:33;;;;;;;5.37;2.87;;;6.90;99.90;;;;;;5083386;28;20258;-80
2023/01/03 02:38:22;;;;;;;10.63;3.60;;;6.90;99.90;;;;;;5082275;28;20622;-80
2023/01/03 02:41:15;;;;;;;5.27;3.13;;;6.80;99.90;;;;;;5100144;28;20166;-80
2023/01/03 02:43:50;;;;;;;6.67;3.80;;;6.80;99.90;;;;;;5100569;28;20173;-80
2023/01/03 02:46:26;;;;;;;6.50;3.17;;;6.80;99.90;;;;;;5100501;28;20237;-80
2023/01/03 02:49:12;;;;;;;8.93;3.17;;;6.70;99.90;;;;;;5081926;28;20202;-80
2023/01/03 02:51:53;;;;;;;7.13;3.20;;;6.70;99.90;;;;;;5082865;28;20174;-80
2023/01/03 02:54:30;;;;;;;5.30;3.17;;;6.60;99.90;;;;;;5083021;28;20748;-79
2023/01/03 02:57:19;;;;;;;4.87;3.00;;;6.60;99.90;;;;;;5101170;28;20670;-80
2023/01/03 02:59:54;;;;;;;5.33;3.37;;;6.50;99.90;;;;;;5082934;28;20173;-80
2023/01/03 03:02:24;;;;;;;4.50;2.97;;;6.40;99.90;;;;;;5083001;28;20173;-80
2023/01/03 03:04:55;;;;;;;5.93;2.63;;;6.40;99.90;;;;;;5102171;28;20159;-80
2023/01/03 03:07:41;;;;;;;8.30;3.30;;;6.30;99.90;;;;;;5101634;28;20190;-80
2023/01/03 03:13:14;;;;;;;4.03;2.60;;;6.10;99.90;;;;;;5101918;28;20193;-80
2023/01/03 03:15:49;;;;;;;5.50;3.27;;;6.00;99.90;;;;;;5101701;28;20180;-80
2023/01/03 03:18:39;;;;;;;4.70;2.57;;;5.90;99.90;;;;;;5082571;28;20200;-80
2023/01/03 03:26:43;;;;;;;9.60;3.13;;;5.60;99.90;;;;;;5100810;28;20170;-80
2023/01/03 03:29:16;;;;;;;4.90;2.77;;;5.50;99.90;;;;;;5099823;28;20166;-80
2023/01/03 03:31:49;;;;;;;5.53;3.20;;;5.40;99.90;;;;;;5100886;28;20255;-80
2023/01/03 03:34:20;;;;;;;4.23;2.83;;;5.40;99.90;;;;;;5100406;28;20182;-80
2023/01/03 03:37:11;;;;;;;3.57;2.60;;;5.30;99.90;;;;;;5082253;28;20576;-80
2023/01/03 03:45:49;;;;;;;6.27;3.50;;;5.10;99.90;;;;;;5097228;28;20209;-80
2023/01/03 03:48:24;;;;;;;3.67;3.00;;;5.10;99.90;;;;;;5082211;28;20217;-80
2023/01/03 03:51:13;;;;;;;7.30;3.77;;;5.00;99.90;;;;;;5101410;28;20162;-80
2023/01/03 03:53:41;;;;;;;8.87;3.83;;;5.00;99.90;;;;;;5100118;28;20235;-80
2023/01/03 03:56:11;;;;;;;5.13;3.17;;;5.00;99.90;;;;;;5100506;28;20174;-80
2023/01/03 03:58:42;;;;;;;8.63;2.97;;;4.90;99.90;;;;;;5100166;28;20581;-80
2023/01/03 04:01:13;;;;;;;5.33;3.50;;;4.90;99.90;;;;;;5100999;28;20174;-80
2023/01/03 04:03:41;;;;;;;11.33;3.73;;;4.80;99.90;;;;;;5082164;28;20194;-80
2023/01/03 04:06:30;;;;;;;5.53;3.80;;;4.80;99.90;;;;;;5100757;28;20265;-80
2023/01/03 04:08:56;;;;;;;8.87;3.30;;;4.80;99.90;;;;;;5082871;28;20209;-80
2023/01/03 04:11:22;;;;;;;6.33;3.20;;;4.80;99.90;;;;;;5099780;28;20170;-80
2023/01/03 04:13:47;;;;;;;6.53;3.37;;;4.80;99.90;;;;;;5120453;28;20213;-78
2023/01/03 04:16:13;;;;;;;7.80;3.80;;;4.70;99.90;;;;;;5118764;28;20261;-79
2023/01/03 04:18:38;;;;;;;5.20;3.87;;;4.70;99.90;;;;;;5099796;28;20225;-80
2023/01/03 04:21:04;;;;;;;8.53;4.57;;;4.70;99.90;;;;;;5081596;28;20174;-80
2023/01/03 04:23:29;;;;;;;8.43;3.83;;;4.70;99.90;;;;;;5081307;28;20224;-80
2023/01/03 04:25:55;;;;;;;6.00;3.93;;;4.70;99.90;;;;;;5082217;28;20190;-80
2023/01/03 04:28:20;;;;;;;8.10;3.97;;;4.70;99.90;;;;;;5099605;28;20285;-80
2023/01/03 04:30:46;;;;;;;5.97;3.73;;;4.60;99.90;;;;;;5099118;28;20194;-80
2023/01/03 04:33:12;;;;;;;5.63;3.20;;;4.60;99.90;;;;;;5081756;28;20202;-80
2023/01/03 04:35:37;;;;;;;5.67;3.43;;;4.50;99.90;;;;;;5081448;28;20197;-80
2023/01/03 04:38:04;;;;;;;7.00;3.73;;;4.50;99.90;;;;;;5099029;28;20198;-80
2023/01/03 04:40:30;;;;;;;6.03;3.73;;;4.40;99.90;;;;;;5099164;28;20219;-79
2023/01/03 04:45:40;;;;;;;3.73;3.30;;;4.30;99.90;;;;;;5099318;28;20224;-80
2023/01/03 04:48:05;;;;;;;3.97;3.13;;;4.20;99.90;;;;;;5080768;28;20202;-80
2023/01/03 04:50:31;;;;;;;7.90;4.97;;;4.10;99.90;;;;;;5099327;28;20174;-79
2023/01/03 04:52:57;;;;;;;6.37;3.10;;;4.10;99.90;;;;;;5099324;28;20233;-80
2023/01/03 04:55:23;;;;;;;5.90;3.93;;;4.00;99.90;;;;;;5099926;28;20198;-80
2023/01/03 04:57:49;;;;;;;5.23;3.10;;;3.90;99.90;;;;;;5099486;28;20214;-80
2023/01/03 05:00:15;;;;;;;6.13;3.47;;;3.90;99.90;;;;;;5080993;28;20262;-80
2023/01/03 05:02:41;;;;;;;4.03;3.20;;;3.80;99.90;;;;;;5098392;28;20643;-80
2023/01/03 05:05:07;;;;;;;5.07;3.57;;;3.80;99.90;;;;;;5099282;28;20182;-80
2023/01/03 05:07:32;;;;;;;4.80;3.30;;;3.70;99.90;;;;;;5098650;28;20226;-80
2023/01/03 05:09:58;;;;;;;3.73;3.10;;;3.70;99.90;;;;;;5080398;28;20675;-80
2023/01/03 05:12:24;;;;;;;5.90;3.77;;;3.70;99.90;;;;;;5081174;28;20673;-80
2023/01/03 05:14:49;;;;;;;5.63;3.93;;;3.60;99.90;;;;;;5081084;28;20176;-80
2023/01/03 05:17:17;;;;;;;6.57;3.37;;;3.60;99.90;;;;;;5080633;28;20200;-80
2023/01/03 05:27:56;;;;;;;7.77;3.20;;;3.40;99.90;;;;;;5097151;28;20560;-80
2023/01/03 05:30:23;;;;;;;4.50;3.23;;;3.40;99.90;;;;;;5097366;28;20174;-79
2023/01/03 05:32:48;;;;;;;5.63;4.10;;;3.40;99.90;;;;;;5098940;28;20277;-80
2023/01/03 05:35:14;;;;;;;6.00;3.60;;;3.40;99.90;;;;;;5080340;28;20201;-79
2023/01/03 05:37:39;;;;;;;7.57;3.53;;;3.50;99.90;;;;;;5098770;28;20179;-80
2023/01/03 05:40:06;;;;;;;4.70;3.80;;;3.40;99.90;;;;;;5098808;28;20178;-79
2023/01/03 05:42:31;;;;;;;7.37;4.60;;;3.40;99.90;;;;;;5098922;28;20170;-79
2023/01/03 05:44:57;;;;;;;4.37;3.73;;;3.40;99.90;;;;;;5098488;28;20634;-80
2023/01/03 05:47:22;;;;;;;9.07;3.97;;;3.40;99.90;;;;;;5097311;28;20183;-79
2023/01/03 05:49:48;;;;;;;5.67;3.17;;;3.40;99.90;;;;;;5097807;28;20246;-80
2023/01/03 05:52:13;;;;;;;6.87;3.77;;;3.40;99.90;;;;;;5079865;28;20266;-79
2023/01/03 05:54:39;;;;;;;4.87;3.77;;;3.40;99.90;;;;;;5078938;28;20293;-79
2023/01/03 05:57:04;;;;;;;4.90;3.13;;;3.40;99.90;;;;;;5079193;28;20357;-79
2023/01/03 05:59:30;;;;;;;6.47;3.67;;;3.40;99.90;;;;;;5102752;23;20221;-87
2023/01/03 06:01:56;;;;;;;4.60;2.80;;;3.40;99.90;;;;;;5099179;28;20155;-86
2023/01/03 06:04:21;;;;;;;3.90;3.00;;;3.40;99.90;;;;;;5073069;28;20170;-86
2023/01/03 06:06:47;;;;;;;8.03;3.73;;;3.30;99.90;;;;;;5057714;28;20181;-87
2023/01/03 06:09:12;;;;;;;4.77;3.20;;;3.30;99.90;;;;;;5076363;28;20218;-87
2023/01/03 06:11:39;;;;;;;7.13;2.90;;;3.20;99.90;;;;;;5075800;28;20198;-87
2023/01/03 06:14:05;;;;;;;7.23;4.17;;;3.20;99.90;;;;;;5075503;28;20190;-87
2023/01/03 06:19:14;;;;;;;5.87;3.23;;;3.10;99.90;;;;;;5075396;28;20206;-87
2023/01/03 06:21:40;;;;;;;4.17;3.00;;;3.10;99.90;;;;;;5056975;28;20201;-86
2023/01/03 06:24:06;;;;;;;4.03;2.90;;;3.00;99.90;;;;;;5056875;28;20586;-86
2023/01/03 06:26:32;;;;;;;5.17;3.10;;;3.10;99.90;;;;;;5075235;28;20750;-86
2023/01/03 06:28:58;;;;;;;7.60;3.67;;;3.10;99.90;;;;;;5057044;28;20206;-86
2023/01/03 06:31:23;;;;;;;6.87;3.70;;;3.10;99.90;;;;;;5074660;28;20224;-86
2023/01/03 06:33:49;;;;;;;4.50;3.33;;;3.20;99.90;;;;;;5057436;28;20206;-86
2023/01/03 06:36:17;;;;;;;4.37;2.63;;;3.20;99.90;;;;;;5074744;28;20254;-86
2023/01/03 06:38:43;;;;;;;4.70;3.00;;;3.30;99.90;;;;;;5057174;28;20171;-86
2023/01/03 06:41:08;;;;;;;5.40;3.17;;;3.30;99.90;;;;;;5056833;28;20759;-85
2023/01/03 06:43:34;;;;;;;7.13;3.07;;;3.30;99.90;;;;;;5057603;28;20613;-85
2023/01/03 06:54:26;;;;;;;6.20;3.57;;;3.50;99.90;;;;;;5077576;28;20197;-85
2023/01/03 06:56:53;;;;;;;7.63;4.33;;;3.50;99.90;;;;;;5066634;28;20254;-83
2023/01/03 06:59:19;;;;;;;5.63;3.77;;;3.50;99.90;;;;;;5064233;28;20214;-85
2023/01/03 07:01:46;;;;;;;6.53;3.53;;;3.60;99.90;;;;;;5078777;28;20187;-84
2023/01/03 07:04:12;;;;;;;7.17;3.70;;;3.60;99.90;;;;;;5083344;28;20190;-84
2023/01/03 07:06:39;;;;;;;5.83;4.13;;;3.60;99.90;;;;;;5084107;28;20259;-84
2023/01/03 07:09:05;;;;;;;5.50;3.40;;;3.60;99.90;;;;;;5061732;28;20179;-84
2023/01/03 07:11:31;;;;;;;5.80;3.90;;;3.70;99.90;;;;;;5077587;28;20186;-84
2023/01/03 07:13:59;;;;;;;6.57;3.93;;;3.70;99.90;;;;;;5060251;28;20203;-84
2023/01/03 07:16:30;;;;;;;7.63;4.27;;;3.80;99.90;;;;;;5061266;28;20171;-84
2023/01/03 07:18:56;;;;;;;9.50;3.80;;;3.80;99.90;;;;;;5085992;28;20175;-81
2023/01/03 07:21:26;;;;;;;5.10;3.37;;;3.80;99.90;;;;;;5069868;28;20175;-81
2023/01/03 07:23:53;;;;;;;5.57;3.77;;;3.90;99.90;;;;;;5088716;28;20167;-80
2023/01/03 07:26:19;;;;;;;7.23;3.63;;;3.90;99.90;;;;;;5089715;28;20178;-81
2023/01/03 07:28:45;;;;;;;7.40;3.50;;;4.00;99.90;;;;;;5089908;28;20636;-80
2023/01/03 07:31:11;;;;;;;5.57;3.57;;;4.10;99.90;;;;;;5069561;28;20301;-80
2023/01/03 07:33:38;;;;;;;5.77;3.43;;;4.10;99.90;;;;;;5071658;28;20217;-80
2023/01/03 07:36:08;;;;;;;4.97;3.40;;;4.10;99.90;;;;;;5072529;28;20638;-81
2023/01/03 07:38:38;;;;;;;6.40;3.43;;;4.10;99.90;;;;;;5070973;28;20189;-82
2023/01/03 07:41:07;;;;;;;5.43;3.80;;;4.10;99.90;;;;;;5073445;28;20202;-82
2023/01/03 07:43:36;;;;;;;7.13;4.33;;;4.10;99.90;;;;;;5073056;28;20186;-83
2023/01/03 07:46:09;;;;;;;8.20;3.87;;;4.10;99.90;;;;;;5073606;28;20182;-82
2023/01/03 07:48:35;;;;;;;13.90;5.10;;;4.10;99.90;;;;;;5092036;28;20198;-82
2023/01/03 07:51:02;;;;;;;10.87;4.40;;;4.10;99.90;;;;;;5074493;28;20203;-81
2023/01/03 07:53:28;;;;;;;5.53;3.87;;;4.20;99.90;;;;;;5092198;28;20224;-83
2023/01/03 07:55:59;;;;;;;7.23;4.13;;;4.20;99.90;;;;;;5072095;28;20197;-81
2023/01/03 07:58:25;;;;;;;4.80;4.10;;;4.30;99.90;;;;;;5090838;28;20555;-80
2023/01/03 08:00:50;;;;;;;10.87;4.27;;;4.40;99.90;;;;;;5090300;28;20207;-80
2023/01/03 08:03:16;;;;;;;8.20;4.10;;;4.40;99.90;;;;;;5073105;28;20202;-82
2023/01/03 08:05:41;;;;;;;6.73;4.30;;;4.50;99.90;;;;;;5091575;28;20179;-80
2023/01/03 08:08:07;;;;;;;4.97;4.00;;;4.50;99.90;;;;;;5071877;28;20183;-80
2023/01/03 08:13:18;;;;;;;7.67;3.93;;;4.80;99.90;;;;;;5094185;28;20202;-80
2023/01/03 08:15:51;;;;;;;7.33;4.10;;;4.70;99.90;;;;;;5095669;28;20257;-81
2023/01/03 08:18:19;;;;;;;6.00;4.50;;;4.80;99.90;;;;;;5095987;28;20528;-80
2023/01/03 08:20:46;;;;;;;8.17;4.57;;;4.90;99.90;;;;;;5087417;28;20191;-81
2023/01/03 08:23:11;;;;;;;12.73;5.00;;;5.00;99.90;;;;;;5069580;28;20278;-80
2023/01/03 08:25:37;;;;;;;11.50;4.87;;;5.10;99.90;;;;;;5070081;28;20544;-81
2023/01/03 08:28:07;;;;;;;6.37;4.67;;;5.20;99.90;;;;;;5086827;28;20178;-82
2023/01/03 08:30:38;;;;;;;13.70;5.60;;;5.20;99.90;;;;;;5068570;28;20604;-82
2023/01/03 08:33:06;;;;;;;10.20;4.93;;;5.30;99.90;;;;;;5086322;28;20206;-81
2023/01/03 08:35:34;;;;;;;12.70;5.30;;;5.40;99.90;;;;;;5068919;28;20183;-81
2023/01/03 08:38:02;;;;;;;14.27;4.93;;;5.50;99.90;;;;;;5085150;28;20257;-81
2023/01/03 08:40:29;;;;;;;10.47;5.37;;;5.50;99.90;;;;;;5067636;28;20194;-82
2023/01/03 08:42:54;;;;;;;8.27;5.17;;;5.50;99.90;;;;;;5084972;28;20520;-81
2023/01/03 08:45:20;;;;;;;12.83;5.53;;;5.60;99.90;;;;;;5067458;28;20182;-81
2023/01/03 08:47:46;;;;;;;7.57;5.40;;;5.70;99.90;;;;;;5085309;28;20533;-81
2023/01/03 08:50:12;;;;;;;10.27;4.80;;;5.70;99.90;;;;;;5084425;28;20191;-81
2023/01/03 08:52:38;;;;;;;10.03;5.40;;;5.70;99.90;;;;;;5084898;28;20210;-82
2023/01/03 08:55:04;;;;;;;12.77;5.43;;;5.80;99.90;;;;;;5085015;28;20225;-81
2023/01/03 08:57:30;;;;;;;8.63;5.17;;;5.80;99.90;;;;;;5066906;28;20201;-81
2023/01/03 08:59:56;;;;;;;6.60;5.10;;;5.80;99.90;;;;;;5085393;28;20212;-81
2023/01/03 09:02:21;;;;;;;8.37;5.20;;;5.90;99.90;;;;;;5085270;28;20178;-82
2023/01/03 09:04:48;;;;;;;12.03;5.83;;;5.90;99.90;;;;;;5085406;28;20290;-82
2023/01/03 09:07:13;;;;;;;10.60;5.77;;;6.00;99.90;;;;;;5066803;28;20179;-81
2023/01/03 09:09:39;;;;;;;10.60;5.70;;;6.00;99.90;;;;;;5068252;28;20198;-81
2023/01/03 09:12:04;;;;;;;6.67;5.33;;;6.10;99.90;;;;;;5069120;28;20179;-81
2023/01/03 09:14:30;;;;;;;8.17;5.53;;;6.10;99.90;;;;;;5086874;28;20206;-81
2023/01/03 09:16:56;;;;;;;11.50;5.97;;;6.20;99.90;;;;;;5069042;28;20258;-81
2023/01/03 09:19:21;;;;;;;7.80;5.27;;;6.20;99.90;;;;;;5087825;28;20251;-81
2023/01/03 09:21:47;;;;;;;9.43;5.33;;;6.30;99.90;;;;;;5068326;28;20175;-81
2023/01/03 09:24:12;;;;;;;9.30;5.47;;;6.30;99.90;;;;;;5086404;28;20229;-81
2023/01/03 09:26:38;;;;;;;7.73;5.13;;;6.40;99.90;;;;;;5068282;28;20186;-81
2023/01/03 09:29:04;;;;;;;8.53;5.23;;;6.50;99.90;;;;;;5067186;28;20179;-81
2023/01/03 09:31:33;;;;;;;9.83;5.33;;;6.50;99.90;;;;;;5068212;28;20185;-81
2023/01/03 09:33:59;;;;;;;7.57;5.27;;;6.50;99.90;;;;;;5087475;28;20218;-81
2023/01/03 09:36:25;;;;;;;7.20;4.60;;;6.60;99.90;;;;;;5066796;28;20182;-81
2023/01/03 09:38:50;;;;;;;10.73;5.40;;;6.60;99.90;;;;;;5063582;28;20173;-82
2023/01/03 09:41:23;;;;;;;8.23;4.93;;;6.70;99.90;;;;;;5062833;28;20244;-81
2023/01/03 09:43:54;;;;;;;11.00;5.07;;;6.60;99.90;;;;;;5081818;28;20175;-80
2023/01/03 09:46:25;;;;;;;10.87;5.23;;;6.60;99.90;;;;;;5082655;28;20584;-82
2023/01/03 09:48:54;;;;;;;10.53;4.87;;;6.70;99.90;;;;;;5064079;28;20717;-82
2023/01/03 10:05:48;;;;;;;6.40;4.73;;;6.90;99.90;;;;;;5082153;28;20178;-82
2023/01/03 10:08:16;;;;;;;10.97;4.83;;;7.00;99.90;;;;;;5063523;28;20241;-81
2023/01/03 10:10:44;;;;;;;9.47;4.80;;;7.00;99.90;;;;;;5081215;28;20248;-82
2023/01/03 10:13:19;;;;;;;5.77;4.00;;;7.10;99.90;;;;;;5081468;28;20548;-82
2023/01/03 10:16:08;;;;;;;7.20;4.03;;;7.10;99.90;;;;;;5081411;28;20154;-82
2023/01/03 10:18:48;;;;;;;7.57;3.93;;;7.20;99.90;;;;;;5063515;28;20173;-82
2023/01/03 10:21:38;;;;;;;9.00;3.70;;;7.30;99.90;;;;;;5081197;28;20159;-82
2023/01/03 10:24:27;;;;;;;6.47;4.00;;;7.30;99.90;;;;;;5082900;28;20167;-82
2023/01/03 10:27:04;;;;;;;8.47;3.60;;;7.30;99.90;;;;;;5063986;28;20605;-82
2023/01/03 10:29:30;;;;;;;7.27;3.20;;;7.50;99.90;;;;;;5081335;28;20209;-82
2023/01/03 10:32:13;;;;;;;9.03;4.03;;;7.50;99.90;;;;;;5082193;28;20174;-82
2023/01/03 10:34:39;;;;;;;6.70;3.67;;;7.60;99.90;;;;;;5083170;28;20250;-82
2023/01/03 10:37:16;;;;;;;7.20;3.60;;;7.70;99.90;;;;;;5062478;28;20221;-81
2023/01/03 10:39:42;;;;;;;6.17;3.93;;;7.70;99.90;;;;;;5080826;28;20233;-82
2023/01/03 10:42:08;;;;;;;11.17;3.90;;;7.70;99.90;;;;;;5083113;28;20178;-81
2023/01/03 10:44:33;;;;;;;8.33;4.10;;;7.80;99.90;;;;;;5064374;28;20174;-82
2023/01/03 10:47:17;;;;;;;4.63;3.00;;;7.80;99.90;;;;;;5063724;28;20178;-81
2023/01/03 10:49:46;;;;;;;8.73;3.37;;;7.90;99.90;;;;;;5063268;28;20262;-82
2023/01/03 10:52:17;;;;;;;5.10;2.70;;;7.90;99.90;;;;;;5064648;28;20224;-82
2023/01/03 10:54:42;;;;;;;6.77;3.23;;;7.90;99.90;;;;;;5068114;28;20198;-82
2023/01/03 10:57:36;;;;;;;11.67;3.23;;;8.00;99.90;;;;;;5067605;28;20556;-82
2023/01/03 11:00:21;;;;;;;6.43;3.03;;;8.00;99.90;;;;;;5066443;28;20246;-81
2023/01/03 11:02:47;;;;;;;7.30;2.80;;;8.00;99.90;;;;;;5067732;28;20183;-82
2023/01/03 11:05:24;;;;;;;6.40;3.20;;;8.00;99.90;;;;;;5085696;28;20167;-81
2023/01/03 11:07:55;;;;;;;7.23;3.67;;;8.10;99.90;;;;;;5085292;28;20245;-80
2023/01/03 11:10:22;;;;;;;3.87;3.10;;;8.10;99.90;;;;;;5086486;28;20266;-82
2023/01/03 11:12:48;;;;;;;7.40;2.70;;;8.10;99.90;;;;;;5065845;28;20182;-80
2023/01/03 11:15:29;;;;;;;7.83;3.10;;;8.10;99.90;;;;;;5087627;28;20167;-81
2023/01/03 11:21:24;;;;;;;7.20;2.73;;;8.20;99.90;;;;;;5089855;28;20216;-81
2023/01/03 11:24:28;;;;;;;5.90;2.53;;;8.20;99.90;;;;;;5090471;28;20236;-80
2023/01/03 11:27:03;;;;;;;7.03;2.43;;;8.20;99.90;;;;;;5089939;28;20174;-81
2023/01/03 11:30:05;;;;;;;6.73;3.30;;;8.30;99.90;;;;;;5090119;28;20228;-81
2023/01/03 11:32:56;;;;;;;6.23;3.20;;;8.30;99.90;;;;;;5091020;28;20198;-82
2023/01/03 11:35:35;;;;;;;7.40;2.73;;;8.30;99.90;;;;;;5091519;28;20169;-81
2023/01/03 11:38:26;;;;;;;5.63;2.40;;;8.30;99.90;;;;;;5091755;28;20166;-81
2023/01/03 11:41:10;;;;;;;8.03;2.60;;;8.30;99.90;;;;;;5090267;28;20217;-81
2023/01/03 11:44:13;;;;;;;6.67;2.43;;;8.30;99.90;;;;;;5090504;28;20171;-81
2023/01/03 11:47:06;;;;;;;4.60;2.13;;;8.40;99.90;;;;;;5071679;28;20608;-81
2023/01/03 11:49:50;;;;;;;3.40;2.00;;;8.40;99.90;;;;;;5089510;28;20222;-81
2023/01/03 11:52:26;;;;;;;6.10;1.97;;;8.50;99.90;;;;;;5089572;28;20581;-81
2023/01/03 11:55:13;;;;;;;3.87;1.93;;;8.50;99.90;;;;;;5089963;28;20187;-81
2023/01/03 11:58:22;;;;;;;4.13;1.83;;;8.50;99.90;;;;;;5089247;28;20223;-81
2023/01/03 12:01:03;;;;;;;4.30;1.93;;;8.60;99.90;;;;;;5089203;28;20205;-82
2023/01/03 12:03:53;;;;;;;4.83;1.30;;;8.70;99.90;;;;;;5091628;22;20201;-77
2023/01/03 12:06:33;;;;;;;3.37;1.60;;;8.70;99.90;;;;;;5074100;28;20265;-78
2023/01/03 12:09:13;;;;;;;2.97;1.20;;;8.70;99.90;;;;;;5074007;28;20163;-78
2023/01/03 12:12:10;;;;;;;6.17;1.70;;;8.80;99.90;;;;;;5075866;28;20187;-77
2023/01/03 12:14:59;;;;;;;2.33;1.10;;;8.80;99.90;;;;;;5075078;28;20213;-78
2023/01/03 12:17:58;;;;;;;3.70;1.60;;;8.90;99.90;;;;;;5073781;28;20253;-78
2023/01/03 12:20:34;;;;;;;3.47;1.40;;;9.00;99.90;;;;;;5071318;28;20187;-78
2023/01/03 12:23:05;;;;;;;5.50;1.30;;;9.00;99.90;;;;;;5075310;28;20167;-78
2023/01/03 12:25:36;;;;;;;6.93;1.50;;;9.10;99.90;;;;;;5075039;28;20187;-77
2023/01/03 12:28:15;;;;;;;3.07;1.20;;;9.10;99.90;;;;;;5073757;28;20167;-78
2023/01/03 12:31:08;;;;;;;2.10;1.27;;;9.10;99.90;;;;;;5073641;28;20208;-77
2023/01/03 12:33:52;;;;;;;3.60;0.93;;;9.20;99.90;;;;;;5073659;28;20245;-78
2023/01/03 12:36:47;;;;;;;4.30;1.13;;;9.20;99.90;;;;;;5073472;28;20175;-77
2023/01/03 12:39:48;;;;;;;1.70;1.00;;;9.20;99.90;;;;;;5074621;28;20190;-78
2023/01/03 12:42:36;;;;;;;7.63;2.13;;;9.30;99.90;;;;;;5075060;28;20514;-78
2023/01/03 12:45:26;;;;;;;3.77;1.10;;;9.30;99.90;;;;;;5073197;28;20191;-78
2023/01/03 12:48:00;;;;;;;3.67;0.90;;;9.30;99.90;;;;;;5074697;28;20162;-77
2023/01/03 12:50:33;;;;;;;6.27;1.50;;;9.40;99.90;;;;;;5073407;28;20632;-78
2023/01/03 12:53:24;;;;;;;4.20;1.20;;;9.40;99.90;;;;;;5074518;28;20194;-77
2023/01/03 12:56:03;;;;;;;4.70;1.30;;;9.50;99.90;;;;;;5074540;28;20170;-77
2023/01/03 12:58:47;;;;;;;4.47;1.10;;;9.50;99.90;;;;;;5074628;28;20159;-77
2023/01/03 13:01:40;;;;;;;6.07;1.47;;;9.60;99.90;;;;;;5072975;28;20610;-77
2023/01/03 13:04:18;;;;;;;4.47;1.30;;;9.60;99.90;;;;;;5067952;28;20222;-77
2023/01/03 13:07:09;;;;;;;6.60;1.00;;;9.80;99.90;;;;;;5074440;28;20164;-78
2023/01/03 13:09:42;;;;;;;4.40;1.17;;;9.80;99.90;;;;;;5074282;28;20242;-78
2023/01/03 13:12:14;;;;;;;2.77;1.23;;;9.80;99.90;;;;;;5072777;28;20170;-78
2023/01/03 13:14:55;;;;;;;2.73;1.20;;;9.80;99.90;;;;;;5072651;28;20297;-78
2023/01/03 13:17:26;;;;;;;2.10;1.00;;;9.80;99.90;;;;;;5075034;28;20166;-78
2023/01/03 13:20:16;;;;;;;4.80;0.80;;;9.80;99.90;;;;;;5075481;28;20164;-78
2023/01/03 13:22:55;;;;;;;2.97;1.10;;;9.80;99.90;;;;;;5078252;28;20173;-77
2023/01/03 13:25:32;;;;;;;6.13;0.83;;;9.80;99.90;;;;;;5087647;28;20183;-78
2023/01/03 13:27:59;;;;;;;3.47;1.03;;;9.80;99.90;;;;;;5087918;28;20245;-77
2023/01/03 13:30:28;;;;;;;2.30;1.00;;;9.70;99.90;;;;;;5072865;28;20518;-77
2023/01/03 13:33:16;;;;;;;1.73;1.00;;;9.80;99.90;;;;;;5074121;28;20535;-77
2023/01/03 13:35:45;;;;;;;4.77;1.40;;;9.90;99.90;;;;;;5072744;28;20220;-77
2023/01/03 13:38:17;;;;;;;2.10;1.00;;;9.80;99.90;;;;;;5073773;28;20317;-78
2023/01/03 13:40:52;;;;;;;3.63;1.23;;;9.80;99.90;;;;;;5073980;28;20655;-77
2023/01/03 13:43:20;;;;;;;6.93;1.40;;;9.80;99.90;;;;;;5073518;28;20167;-78
2023/01/03 13:45:45;;;;;;;5.47;1.20;;;9.80;99.90;;;;;;5075195;28;20175;-78
2023/01/03 13:48:30;;;;;;;5.97;1.23;;;9.80;99.90;;;;;;5075270;28;20568;-79
2023/01/03 13:51:24;;;;;;;3.90;0.93;;;9.80;99.90;;;;;;5074793;28;20186;-77
2023/01/03 13:53:54;;;;;;;2.63;1.13;;;9.80;99.90;;;;;;5071954;28;20241;-74
2023/01/03 13:56:29;;;;;;;4.67;1.00;;;9.70;99.90;;;;;;5073119;28;20170;-77
2023/01/03 13:59:00;;;;;;;2.97;1.10;;;9.70;99.90;;;;;;5073080;28;20528;-76
2023/01/03 14:01:51;;;;;;;4.20;1.20;;;9.60;99.90;;;;;;5072861;28;20182;-76
2023/01/03 14:04:39;;;;;;;3.63;1.20;;;9.60;99.90;;;;;;5072781;28;20233;-76
2023/01/03 14:07:29;;;;;;;4.97;1.13;;;9.60;99.90;;;;;;5072952;28;20724;-76
2023/01/03 14:10:27;;;;;;;2.73;1.13;;;9.60;99.90;;;;;;5072718;28;20167;-76
2023/01/03 14:13:04;;;;;;;4.33;1.30;;;9.60;99.90;;;;;;5073007;28;20528;-76
2023/01/03 14:15:32;;;;;;;2.60;1.07;;;9.50;99.90;;;;;;5072625;28;20194;-76
2023/01/03 14:18:11;;;;;;;3.10;1.37;;;9.50;99.90;;;;;;5072757;28;20207;-76
2023/01/03 14:20:38;;;;;;;3.33;1.73;;;9.50;99.90;;;;;;5071421;28;20246;-76
2023/01/03 14:23:07;;;;;;;5.23;1.30;;;9.50;99.90;;;;;;5071375;28;20207;-76
2023/01/03 14:25:41;;;;;;;3.13;1.03;;;9.50;99.90;;;;;;5071306;28;20178;-76